createdAt,value
2019-02-21T00:00:02.985Z,19.40
2019-02-21T05:52:34.792Z,17.17
2019-02-21T05:55:13.581Z,17.40
2019-02-21T05:58:05.727Z,14.80
2019-02-21T06:00:41.560Z,14.60
2019-02-21T06:03:27.979Z,17.33
2019-02-21T06:06:17.424Z,14.90
2019-02-21T06:08:54.684Z,18.53
2019-02-21T06:11:28.953Z,16.27
2019-02-21T06:14:15.351Z,13.50
2019-02-21T06:16:48.024Z,16.82
2019-02-21T06:19:25.708Z,18.27
2019-02-21T06:22:10.550Z,17.60
2019-02-21T06:24:54.072Z,22.90
2019-02-21T06:27:29.754Z,15.97
2019-02-21T06:30:21.964Z,14.83
2019-02-21T06:32:48.752Z,14.40
2019-02-21T06:35:15.633Z,14.17
2019-02-21T06:37:42.387Z,18.47
2019-02-21T06:40:09.370Z,17.50
2019-02-21T06:42:36.250Z,17.97
2019-02-21T06:45:03.466Z,17.40
2019-02-21T06:47:30.189Z,17.20
2019-02-21T06:49:58.726Z,16.87
2019-02-21T06:52:25.846Z,18.67
2019-02-21T06:58:21.551Z,19.10
2019-02-21T07:00:48.475Z,17.53
2019-02-21T07:03:16.220Z,20.80
2019-02-21T07:05:43.241Z,18.60
2019-02-21T07:08:10.294Z,17.90
2019-02-21T07:10:37.186Z,21.63
2019-02-21T07:13:03.959Z,18.70
2019-02-21T07:15:30.853Z,17.93
2019-02-21T07:17:57.600Z,17.35
2019-02-21T07:20:24.407Z,16.77
2019-02-21T07:22:51.374Z,13.17
2019-02-21T07:25:41.204Z,15.63
2019-02-21T07:28:11.763Z,16.10
2019-02-21T07:30:36.962Z,14.10
2019-02-21T07:33:04.054Z,14.10
2019-02-21T07:35:31.054Z,16.10
2019-02-21T07:37:58.071Z,14.63
2019-02-21T07:40:25.136Z,13.17
2019-02-21T07:42:52.036Z,14.67
2019-02-21T07:45:19.077Z,14.80
2019-02-21T07:47:45.961Z,19.80
2019-02-21T07:50:13.080Z,19.57
2019-02-21T07:52:39.986Z,16.50
2019-02-21T07:55:07.186Z,18.13
2019-02-21T07:57:34.264Z,15.27
2019-02-21T08:00:01.265Z,20.50
2019-02-21T08:02:28.288Z,18.60
2019-02-21T08:04:55.332Z,20.97
2019-02-21T08:07:22.359Z,18.83
2019-02-21T08:09:49.374Z,22.03
2019-02-21T08:12:16.221Z,19.37
2019-02-21T08:14:43.508Z,20.07
2019-02-21T08:17:10.543Z,20.50
2019-02-21T08:19:37.558Z,21.17
2019-02-21T08:22:04.469Z,21.27
2019-02-21T08:24:31.544Z,21.20
2019-02-21T08:26:58.548Z,25.37
2019-02-21T08:29:25.766Z,23.03
2019-02-21T08:31:52.746Z,25.40
2019-02-21T08:34:35.836Z,24.43
2019-02-21T08:37:02.865Z,24.90
2019-02-21T08:39:29.959Z,26.00
2019-02-21T08:41:56.948Z,23.67
2019-02-21T08:44:23.912Z,26.13
2019-02-21T08:46:53.415Z,27.07
2019-02-21T08:49:19.696Z,28.97
2019-02-21T08:51:46.555Z,27.67
2019-02-21T08:54:13.447Z,26.67
2019-02-21T08:56:40.407Z,42.47
2019-02-21T08:59:07.419Z,34.88
2019-02-21T09:01:34.464Z,33.83
2019-02-21T09:04:09.981Z,33.10
2019-02-21T09:06:30.103Z,34.23
2019-02-21T09:08:57.065Z,29.60
2019-02-21T09:11:23.929Z,31.17
2019-02-21T09:13:50.895Z,32.97
2019-02-21T09:16:18.001Z,29.83
2019-02-21T09:18:44.856Z,31.17
2019-02-21T09:21:11.571Z,33.60
2019-02-21T09:23:38.467Z,32.17
2019-02-21T09:26:05.363Z,38.10
2019-02-21T09:28:32.112Z,36.60
2019-02-21T09:30:59.030Z,33.27
2019-02-21T09:33:25.824Z,29.80
2019-02-21T09:35:52.591Z,30.73
2019-02-21T09:38:19.477Z,34.47
2019-02-21T09:40:46.400Z,29.90
2019-02-21T09:43:13.164Z,35.30
2019-02-21T09:45:42.185Z,34.03
2019-02-21T09:48:08.938Z,31.73
2019-02-21T09:50:35.795Z,37.30
2019-02-21T09:53:02.676Z,34.67
2019-02-21T09:55:29.842Z,32.33
2019-02-21T09:57:56.821Z,39.63
2019-02-21T10:00:23.751Z,39.17
2019-02-21T10:02:53.145Z,41.30
2019-02-21T10:05:19.427Z,40.67
2019-02-21T10:07:46.293Z,43.43
2019-02-21T10:10:14.979Z,40.00
2019-02-21T10:12:42.007Z,41.30
2019-02-21T10:15:16.349Z,41.80
2019-02-21T10:17:43.255Z,40.53
2019-02-21T10:20:14.673Z,38.03
2019-02-21T10:22:41.559Z,34.33
2019-02-21T10:25:23.129Z,36.33
2019-02-21T10:27:50.425Z,40.57
2019-02-21T10:30:18.352Z,42.20
2019-02-21T10:32:45.189Z,36.27
2019-02-21T10:35:12.547Z,36.20
2019-02-21T10:37:39.415Z,46.23
2019-02-21T10:40:07.392Z,44.87
2019-02-21T10:42:34.327Z,32.07
2019-02-21T10:45:03.451Z,42.10
2019-02-21T10:47:30.033Z,39.07
2019-02-21T10:49:56.827Z,36.47
2019-02-21T10:52:23.587Z,43.13
2019-02-21T10:54:50.366Z,39.33
2019-02-21T10:57:17.300Z,39.33
2019-02-21T10:59:46.849Z,44.63
2019-02-21T11:02:12.949Z,38.57
2019-02-21T11:04:42.108Z,36.03
2019-02-21T11:07:08.959Z,35.00
2019-02-21T11:09:35.691Z,39.40
2019-02-21T11:12:03.273Z,36.73
2019-02-21T11:14:30.083Z,40.90
2019-02-21T11:16:56.876Z,34.67
2019-02-21T11:19:23.619Z,40.07
2019-02-21T11:21:50.343Z,37.40
2019-02-21T11:24:17.377Z,36.40
2019-02-21T11:26:44.220Z,34.80
2019-02-21T11:29:11.111Z,35.17
2019-02-21T11:31:37.984Z,35.53
2019-02-21T11:34:04.964Z,38.33
2019-02-21T11:36:31.706Z,37.67
2019-02-21T11:38:58.703Z,36.03
2019-02-21T11:41:25.660Z,38.83
2019-02-21T11:43:52.582Z,34.17
2019-02-21T11:46:19.531Z,33.87
2019-02-21T11:48:46.475Z,30.37
2019-02-21T11:51:13.313Z,36.53
2019-02-21T11:53:40.341Z,32.90
2019-02-21T11:56:07.311Z,36.03
2019-02-21T11:58:34.071Z,33.00
2019-02-21T12:01:01.239Z,38.50
2019-02-21T12:03:28.000Z,31.67
2019-02-21T12:05:55.000Z,28.90
2019-02-21T12:08:21.987Z,32.53
2019-02-21T12:10:50.908Z,32.10
2019-02-21T12:13:17.616Z,30.83
2019-02-21T12:15:44.641Z,32.90
2019-02-21T12:18:11.614Z,29.13
2019-02-21T12:20:38.507Z,35.40
2019-02-21T12:23:05.427Z,27.77
2019-02-21T12:25:32.419Z,32.30
2019-02-21T12:27:59.295Z,30.00
2019-02-21T12:30:26.302Z,31.57
2019-02-21T12:32:53.065Z,34.90
2019-02-21T12:35:29.173Z,33.63
2019-02-21T12:37:48.990Z,32.40
2019-02-21T12:40:16.539Z,37.27
2019-02-21T12:42:43.598Z,33.90
2019-02-21T12:45:12.068Z,31.53
2019-02-21T12:47:49.754Z,30.20
2019-02-21T12:50:08.118Z,28.63
2019-02-21T12:52:34.964Z,31.50
2019-02-21T12:55:02.003Z,34.50
2019-02-21T12:57:28.759Z,30.63
2019-02-21T12:59:55.659Z,35.47
2019-02-21T13:02:22.564Z,34.83
2019-02-21T13:04:49.479Z,33.60
2019-02-21T13:07:16.249Z,29.50
2019-02-21T13:09:43.108Z,35.70
2019-02-21T13:12:09.975Z,38.40
2019-02-21T13:14:36.856Z,37.70
2019-02-21T13:17:03.816Z,34.97
2019-02-21T13:19:30.807Z,34.53
2019-02-21T13:21:57.687Z,33.40
2019-02-21T13:24:24.592Z,40.00
2019-02-21T13:26:51.479Z,41.03
2019-02-21T13:29:18.251Z,37.67
2019-02-21T13:31:45.159Z,34.40
2019-02-21T13:34:11.910Z,36.00
2019-02-21T13:36:38.991Z,35.67
2019-02-21T13:39:07.046Z,32.50
2019-02-21T13:41:33.871Z,30.53
2019-02-21T13:44:00.753Z,33.23
2019-02-21T13:46:36.715Z,33.53
2019-02-21T13:48:56.516Z,35.47
2019-02-21T13:51:23.271Z,31.67
2019-02-21T13:53:52.249Z,35.40
2019-02-21T13:56:18.759Z,31.73
2019-02-21T13:58:45.478Z,31.83
2019-02-21T14:01:14.363Z,30.10
2019-02-21T14:03:41.046Z,34.50
2019-02-21T14:06:07.926Z,37.43
2019-02-21T14:08:34.802Z,39.50
2019-02-21T14:11:01.733Z,40.50
2019-02-21T14:13:28.630Z,35.50
2019-02-21T14:15:55.510Z,35.10
2019-02-21T14:18:24.431Z,39.67
2019-02-21T14:20:51.068Z,35.17
2019-02-21T14:23:18.119Z,38.70
2019-02-21T14:25:44.855Z,35.37
2019-02-21T14:28:11.751Z,34.43
2019-02-21T14:30:38.688Z,37.37
2019-02-21T14:33:05.691Z,37.73
2019-02-21T14:35:33.127Z,39.37
2019-02-21T14:37:59.956Z,32.77
2019-02-21T14:40:26.824Z,38.67
2019-02-21T14:42:53.693Z,37.57
2019-02-21T14:45:20.684Z,36.50
2019-02-21T14:47:47.742Z,32.87
2019-02-21T14:50:14.740Z,32.17
2019-02-21T14:52:41.707Z,33.57
2019-02-21T14:55:09.483Z,44.73
2019-02-21T14:57:40.956Z,38.20
2019-02-21T15:00:08.352Z,36.70
2019-02-21T15:02:35.276Z,33.93
2019-02-21T15:05:02.207Z,37.33
2019-02-21T15:07:29.132Z,32.77
2019-02-21T15:09:56.026Z,33.33
2019-02-21T15:12:22.893Z,35.83
2019-02-21T15:14:49.681Z,32.37
2019-02-21T15:17:18.518Z,37.43
2019-02-21T15:19:45.292Z,33.90
2019-02-21T15:22:13.866Z,41.00
2019-02-21T15:24:41.099Z,43.90
2019-02-21T15:27:08.839Z,38.47
2019-02-21T15:29:39.104Z,35.30
2019-02-21T15:32:11.023Z,36.07
2019-02-21T15:34:33.239Z,35.27
2019-02-21T15:37:00.302Z,35.00
2019-02-21T15:39:27.048Z,36.73
2019-02-21T15:41:53.921Z,34.90
2019-02-21T15:44:20.687Z,39.43
2019-02-21T15:46:47.606Z,34.60
2019-02-21T15:49:14.423Z,45.83
2019-02-21T15:51:41.724Z,37.27
2019-02-21T15:54:08.509Z,36.57
2019-02-21T15:56:35.387Z,41.23
2019-02-21T15:59:02.455Z,39.97
2019-02-21T16:01:29.303Z,32.20
2019-02-21T16:03:56.023Z,35.97
2019-02-21T16:06:22.918Z,35.73
2019-02-21T16:08:49.804Z,36.53
2019-02-21T16:11:16.622Z,36.57
2019-02-21T16:13:43.880Z,34.47
2019-02-21T16:16:11.142Z,39.23
2019-02-21T16:18:38.142Z,35.13
2019-02-21T16:21:05.249Z,41.63
2019-02-21T16:23:32.141Z,38.47
2019-02-21T16:25:59.150Z,42.97
2019-02-21T16:28:26.059Z,36.67
2019-02-21T16:30:52.798Z,38.70
2019-02-21T16:33:19.587Z,45.03
2019-02-21T16:35:46.742Z,39.53
2019-02-21T16:38:13.696Z,35.83
2019-02-21T16:40:40.564Z,42.60
2019-02-21T16:43:07.339Z,40.37
2019-02-21T16:45:43.609Z,38.80
2019-02-21T16:48:03.435Z,37.97
2019-02-21T16:50:30.473Z,41.27
2019-02-21T16:52:57.775Z,40.87
2019-02-21T16:55:24.715Z,42.20
2019-02-21T16:57:51.424Z,34.87
2019-02-21T17:00:18.319Z,40.87
2019-02-21T17:02:45.413Z,39.37
2019-02-21T17:05:13.232Z,45.17
2019-02-21T17:07:40.156Z,40.80
2019-02-21T17:10:07.620Z,41.23
2019-02-21T17:12:36.974Z,42.97
2019-02-21T17:15:03.911Z,34.90
2019-02-21T17:17:30.863Z,38.53
2019-02-21T17:19:57.783Z,37.47
2019-02-21T17:22:24.723Z,40.63
2019-02-21T17:24:53.179Z,41.43
2019-02-21T17:27:20.395Z,42.47
2019-02-21T17:29:47.552Z,40.17
2019-02-21T17:32:14.454Z,38.60
2019-02-21T17:34:41.479Z,37.42
2019-02-21T17:37:08.928Z,38.40
2019-02-21T17:39:35.963Z,36.37
2019-02-21T17:42:02.852Z,39.07
2019-02-21T17:44:31.755Z,40.70
2019-02-21T17:46:58.734Z,43.87
2019-02-21T17:49:25.768Z,37.00
2019-02-21T17:51:53.886Z,40.40
2019-02-21T17:54:21.331Z,38.27
2019-02-21T17:56:48.436Z,40.93
2019-02-21T17:59:15.335Z,41.33
2019-02-21T18:01:42.394Z,39.83
2019-02-21T18:04:09.184Z,45.47
2019-02-21T18:06:36.142Z,38.63
2019-02-21T18:09:05.004Z,35.30
2019-02-21T18:11:32.078Z,40.77
2019-02-21T18:13:58.986Z,41.00
2019-02-21T18:16:30.678Z,44.90
2019-02-21T18:18:57.600Z,41.57
2019-02-21T18:21:24.481Z,39.90
2019-02-21T18:23:51.719Z,43.77
2019-02-21T18:26:19.216Z,43.57
2019-02-21T18:28:46.525Z,43.73
2019-02-21T18:31:13.488Z,42.47
2019-02-21T18:33:40.462Z,44.30
2019-02-21T18:36:07.464Z,40.67
2019-02-21T18:38:34.648Z,45.87
2019-02-21T18:41:01.773Z,46.47
2019-02-21T18:43:29.158Z,46.03
2019-02-21T18:45:57.618Z,48.60
2019-02-21T18:48:24.711Z,38.97
2019-02-21T18:50:51.573Z,43.43
2019-02-21T18:53:18.333Z,40.93
2019-02-21T18:55:45.443Z,41.13
2019-02-21T18:58:12.367Z,44.47
2019-02-21T19:00:39.368Z,46.47
2019-02-21T19:03:06.337Z,44.70
2019-02-21T19:05:36.243Z,41.73
2019-02-21T19:08:05.425Z,43.47
2019-02-21T19:10:32.179Z,43.77
2019-02-21T19:12:59.259Z,41.60
2019-02-21T19:15:26.854Z,41.33
2019-02-21T19:17:53.872Z,41.93
2019-02-21T19:20:21.035Z,42.07
2019-02-21T19:22:48.057Z,49.10
2019-02-21T19:25:15.067Z,48.43
2019-02-21T19:27:48.906Z,46.27
2019-02-21T19:30:19.318Z,48.87
2019-02-21T19:32:46.348Z,56.03
2019-02-21T19:35:14.671Z,54.23
2019-02-21T19:37:41.714Z,45.37
2019-02-21T19:40:08.764Z,47.13
2019-02-21T19:42:35.853Z,45.63
2019-02-21T19:45:02.934Z,54.33
2019-02-21T19:47:29.939Z,42.77
2019-02-21T19:49:57.264Z,43.63
2019-02-21T19:52:24.373Z,50.93
2019-02-21T19:54:52.995Z,42.70
2019-02-21T19:57:20.043Z,44.83
2019-02-21T19:59:46.970Z,42.80
2019-02-21T20:02:13.830Z,39.03
2019-02-21T20:04:44.446Z,39.80
2019-02-21T20:07:11.280Z,40.03
2019-02-21T20:09:38.307Z,38.33
2019-02-21T20:12:05.606Z,43.53
2019-02-21T20:14:35.764Z,39.97
2019-02-21T20:17:06.293Z,38.73
2019-02-21T20:19:35.249Z,38.20
2019-02-21T20:22:02.271Z,38.70
2019-02-21T20:24:29.020Z,42.90
2019-02-21T20:26:55.790Z,35.70
2019-02-21T20:29:22.816Z,40.73
2019-02-21T20:31:49.843Z,38.00
2019-02-21T20:34:16.695Z,38.90
2019-02-21T20:36:50.679Z,35.10
2019-02-21T20:39:12.467Z,36.03
2019-02-21T20:41:39.443Z,45.17
2019-02-21T20:44:06.468Z,44.77
2019-02-21T20:46:33.436Z,46.30
2019-02-21T20:49:00.741Z,42.07
2019-02-21T20:51:27.863Z,39.40
2019-02-21T20:53:54.736Z,42.23
2019-02-21T20:56:21.629Z,42.37
2019-02-21T20:58:48.592Z,42.70
2019-02-21T21:01:15.680Z,42.30
2019-02-21T21:03:42.543Z,46.10
2019-02-21T21:06:09.366Z,45.23
2019-02-21T21:08:43.174Z,44.67
2019-02-21T21:11:05.231Z,43.80
2019-02-21T21:13:31.963Z,41.57
2019-02-21T21:15:58.859Z,44.37
2019-02-21T21:18:25.719Z,46.80
2019-02-21T21:20:52.639Z,46.43
2019-02-21T21:23:19.428Z,51.20
2019-02-21T21:25:46.316Z,52.73
2019-02-21T21:28:13.239Z,48.83
2019-02-21T21:30:40.295Z,49.10
2019-02-21T21:33:07.117Z,43.33
2019-02-21T21:35:34.048Z,44.57
2019-02-21T21:38:00.795Z,47.13
2019-02-21T21:40:27.574Z,44.50
2019-02-21T21:42:54.585Z,45.67
2019-02-21T21:45:21.596Z,47.90
2019-02-21T21:47:48.535Z,45.33
2019-02-21T21:50:15.567Z,47.73
2019-02-21T21:52:42.519Z,42.60
2019-02-21T21:55:09.544Z,43.10
2019-02-21T21:57:36.495Z,43.90
2019-02-21T22:00:04.995Z,45.47
2019-02-21T22:02:31.868Z,40.10
2019-02-21T22:04:59.635Z,43.87
2019-02-21T22:07:26.487Z,41.80
2019-02-21T22:09:53.985Z,42.90
2019-02-21T22:12:21.115Z,37.27
2019-02-21T22:14:47.944Z,44.40
2019-02-21T22:17:14.887Z,43.58
2019-02-21T22:19:41.800Z,39.80
2019-02-21T22:22:09.252Z,44.53
2019-02-21T22:24:36.112Z,49.10
2019-02-21T22:27:03.118Z,50.67
2019-02-21T22:29:29.963Z,42.60
2019-02-21T22:31:56.706Z,49.37
2019-02-21T22:34:23.627Z,47.27
2019-02-21T22:36:50.515Z,46.93
2019-02-21T22:39:17.326Z,52.90
2019-02-21T22:41:44.155Z,49.50
2019-02-21T22:44:11.029Z,51.00
2019-02-21T22:46:37.907Z,59.33
2019-02-21T22:49:04.811Z,58.60
2019-02-21T22:51:31.531Z,55.57
2019-02-21T22:53:58.271Z,55.73
2019-02-21T22:56:25.006Z,57.77
2019-02-21T22:58:51.908Z,59.13
2019-02-21T23:01:36.951Z,56.50
2019-02-21T23:04:41.083Z,56.60
2019-02-21T23:07:36.886Z,52.30
2019-02-21T23:10:03.919Z,58.67
2019-02-21T23:12:30.651Z,52.37
2019-02-21T23:14:57.502Z,52.20
2019-02-21T23:17:24.840Z,53.27
2019-02-21T23:19:51.655Z,54.53
2019-02-21T23:22:18.415Z,56.03
2019-02-21T23:24:45.276Z,56.83
2019-02-21T23:27:12.255Z,53.83
2019-02-21T23:29:39.164Z,59.10
2019-02-21T23:32:06.117Z,57.57
2019-02-21T23:34:37.504Z,55.50
2019-02-21T23:37:04.659Z,57.47
2019-02-21T23:39:38.341Z,55.60
2019-02-21T23:42:00.111Z,57.93
2019-02-21T23:44:26.855Z,57.53
2019-02-21T23:46:54.350Z,61.13
2019-02-21T23:49:21.302Z,63.00
2019-02-21T23:51:48.190Z,59.23
2019-02-21T23:54:15.395Z,59.60
2019-02-21T23:56:42.355Z,64.80
2019-02-21T23:59:09.116Z,62.43
